sensor_id;sensor_type;location;lat;lon;timestamp;pressure;altitude;pressure_sealevel;temperature;humidity
3206;BME280;1615;53.602;11.418;2023-01-25T00:02:11;103459.34;;;3.17;100.00
3206;BME280;1615;53.602;11.418;2023-01-25T00:04:36;103456.28;;;3.20;100.00
3206;BME280;1615;53.602;11.418;2023-01-25T00:07:02;103453.91;;;3.17;100.00
3206;BME280;1615;53.602;11.418;2023-01-25T00:09:27;103457.50;;;3.09;100.00
3206;BME280;1615;53.602;11.418;2023-01-25T00:11:52;103449.56;;;3.08;100.00
3206;BME280;1615;53.602;11.418;2023-01-25T00:14:20;103440.34;;;3.17;100.00
3206;BME280;1615;53.602;11.418;2023-01-25T00:16:45;103444.09;;;3.16;100.00
3206;BME280;1615;53.602;11.418;2023-01-25T00:19:11;103377.22;;;2.86;100.00
3206;BME280;1615;53.602;11.418;2023-01-25T00:21:37;103441.22;;;3.17;100.00
3206;BME280;1615;53.602;11.418;2023-01-25T00:24:03;103442.03;;;3.18;100.00
3206;BME280;1615;53.602;11.418;2023-01-25T00:26:29;103440.34;;;3.17;100.00
3206;BME280;1615;53.602;11.418;2023-01-25T00:28:55;103438.06;;;3.06;100.00
3206;BME280;1615;53.602;11.418;2023-01-25T00:36:50;103428.66;;;2.94;100.00
3206;BME280;1615;53.602;11.418;2023-01-25T00:39:16;103431.72;;;2.91;100.00
3206;BME280;1615;53.602;11.418;2023-01-25T00:41:42;103239.75;;;1.82;100.00
3206;BME280;1615;53.602;11.418;2023-01-25T00:44:07;103423.59;;;2.91;100.00
3206;BME280;1615;53.602;11.418;2023-01-25T00:46:33;103435.44;;;2.90;100.00
3206;BME280;1615;53.602;11.418;2023-01-25T00:48:58;103426.25;;;2.99;100.00
3206;BME280;1615;53.602;11.418;2023-01-25T00:51:24;103434.81;;;2.80;100.00
3206;BME280;1615;53.602;11.418;2023-01-25T00:53:50;103340.56;;;2.45;100.00
3206;BME280;1615;53.602;11.418;2023-01-25T00:56:15;103427.31;;;2.90;100.00
3206;BME280;1615;53.602;11.418;2023-01-25T00:58:41;103426.69;;;2.80;100.00
3206;BME280;1615;53.602;11.418;2023-01-25T01:01:07;103418.41;;;2.81;100.00
3206;BME280;1615;53.602;11.418;2023-01-25T01:03:32;103411.78;;;2.84;100.00
3206;BME280;1615;53.602;11.418;2023-01-25T01:06:16;103405.66;;;2.90;100.00
3206;BME280;1615;53.602;11.418;2023-01-25T01:08:42;103406.69;;;2.89;100.00
3206;BME280;1615;53.602;11.418;2023-01-25T01:11:09;103267.16;;;2.09;100.00
3206;BME280;1615;53.602;11.418;2023-01-25T01:13:35;103403.97;;;2.89;100.00
3206;BME280;1615;53.602;11.418;2023-01-25T01:16:02;103400.56;;;2.87;100.00
3206;BME280;1615;53.602;11.418;2023-01-25T01:18:33;103396.50;;;2.91;100.00
3206;BME280;1615;53.602;11.418;2023-01-25T01:20:58;103401.91;;;2.91;100.00
3206;BME280;1615;53.602;11.418;2023-01-25T01:23:24;103400.38;;;2.96;100.00
3206;BME280;1615;53.602;11.418;2023-01-25T01:25:49;103405.28;;;2.93;100.00
3206;BME280;1615;53.602;11.418;2023-01-25T01:28:15;103400.72;;;2.93;100.00
3206;BME280;1615;53.602;11.418;2023-01-25T01:30:40;103390.72;;;2.94;100.00
3206;BME280;1615;53.602;11.418;2023-01-25T01:33:05;103395.84;;;2.89;100.00
3206;BME280;1615;53.602;11.418;2023-01-25T01:35:31;103404.69;;;2.83;100.00
3206;BME280;1615;53.602;11.418;2023-01-25T01:37:57;103402.16;;;2.81;100.00
3206;BME280;1615;53.602;11.418;2023-01-25T01:40:23;103329.06;;;2.43;100.00
3206;BME280;1615;53.602;11.418;2023-01-25T01:42:59;103321.56;;;2.53;100.00
3206;BME280;1615;53.602;11.418;2023-01-25T01:53:38;103389.72;;;2.87;100.00
3206;BME280;1615;53.602;11.418;2023-01-25T01:56:07;103379.63;;;2.81;100.00
3206;BME280;1615;53.602;11.418;2023-01-25T01:58:35;103383.34;;;2.80;100.00
3206;BME280;1615;53.602;11.418;2023-01-25T02:01:00;103378.28;;;2.77;100.00
3206;BME280;1615;53.602;11.418;2023-01-25T02:03:27;103383.75;;;2.69;100.00
3206;BME280;1615;53.602;11.418;2023-01-25T02:08:47;103377.16;;;2.63;100.00
3206;BME280;1615;53.602;11.418;2023-01-25T02:11:13;103361.78;;;2.64;100.00
3206;BME280;1615;53.602;11.418;2023-01-25T02:13:39;103363.78;;;2.70;100.00
3206;BME280;1615;53.602;11.418;2023-01-25T02:16:05;103371.75;;;2.63;100.00
3206;BME280;1615;53.602;11.418;2023-01-25T02:18:32;103370.94;;;2.63;100.00
3206;BME280;1615;53.602;11.418;2023-01-25T02:20:58;103223.91;;;1.71;100.00
3206;BME280;1615;53.602;11.418;2023-01-25T02:25:57;103355.97;;;2.44;100.00
3206;BME280;1615;53.602;11.418;2023-01-25T02:28:46;103359.22;;;2.40;100.00
3206;BME280;1615;53.602;11.418;2023-01-25T02:31:12;103362.09;;;2.38;100.00
3206;BME280;1615;53.602;11.418;2023-01-25T02:33:38;103345.69;;;2.40;100.00
3206;BME280;1615;53.602;11.418;2023-01-25T02:38:34;103339.91;;;2.43;100.00
3206;BME280;1615;53.602;11.418;2023-01-25T02:41:06;102883.06;;;-0.49;100.00
3206;BME280;1615;53.602;11.418;2023-01-25T02:43:34;103336.97;;;2.52;100.00
3206;BME280;1615;53.602;11.418;2023-01-25T02:46:23;103334.94;;;2.54;100.00
3206;BME280;1615;53.602;11.418;2023-01-25T02:48:52;103336.44;;;2.57;100.00
3206;BME280;1615;53.602;11.418;2023-01-25T02:51:18;103331.34;;;2.62;100.00
3206;BME280;1615;53.602;11.418;2023-01-25T02:53:43;103324.72;;;2.64;100.00
3206;BME280;1615;53.602;11.418;2023-01-25T02:56:08;103316.63;;;2.56;100.00
3206;BME280;1615;53.602;11.418;2023-01-25T02:58:34;103324.22;;;2.61;100.00
3206;BME280;1615;53.602;11.418;2023-01-25T03:00:59;103288.13;;;2.46;100.00
3206;BME280;1615;53.602;11.418;2023-01-25T03:03:24;103324.22;;;2.61;100.00
3206;BME280;1615;53.602;11.418;2023-01-25T03:05:50;103315.50;;;2.51;100.00
3206;BME280;1615;53.602;11.418;2023-01-25T03:08:15;103321.25;;;2.48;100.00
3206;BME280;1615;53.602;11.418;2023-01-25T03:10:40;103327.69;;;2.47;100.00
3206;BME280;1615;53.602;11.418;2023-01-25T03:13:06;103315.69;;;2.49;100.00
3206;BME280;1615;53.602;11.418;2023-01-25T03:15:31;103317.59;;;2.41;100.00
3206;BME280;1615;53.602;11.418;2023-01-25T03:17:57;103301.75;;;2.30;100.00
3206;BME280;1615;53.602;11.418;2023-01-25T03:20:22;103317.47;;;2.26;100.00
3206;BME280;1615;53.602;11.418;2023-01-25T03:22:48;103325.16;;;2.15;100.00
3206;BME280;1615;53.602;11.418;2023-01-25T03:25:13;103300.13;;;2.13;100.00
3206;BME280;1615;53.602;11.418;2023-01-25T03:27:39;103254.91;;;1.91;100.00
3206;BME280;1615;53.602;11.418;2023-01-25T03:30:05;103288.63;;;2.19;100.00
3206;BME280;1615;53.602;11.418;2023-01-25T03:32:30;103298.53;;;2.26;100.00
3206;BME280;1615;53.602;11.418;2023-01-25T03:34:55;103300.09;;;2.21;100.00
3206;BME280;1615;53.602;11.418;2023-01-25T03:37:23;103218.31;;;1.72;100.00
3206;BME280;1615;53.602;11.418;2023-01-25T03:39:51;103289.28;;;2.21;100.00
3206;BME280;1615;53.602;11.418;2023-01-25T03:42:19;103253.28;;;2.12;100.00
3206;BME280;1615;53.602;11.418;2023-01-25T03:44:44;103278.22;;;2.30;100.00
3206;BME280;1615;53.602;11.418;2023-01-25T03:47:10;103277.19;;;2.31;100.00
3206;BME280;1615;53.602;11.418;2023-01-25T03:49:35;103268.25;;;2.31;100.00
3206;BME280;1615;53.602;11.418;2023-01-25T03:52:00;103272.47;;;2.33;100.00
3206;BME280;1615;53.602;11.418;2023-01-25T03:54:26;103266.34;;;2.31;100.00
3206;BME280;1615;53.602;11.418;2023-01-25T03:56:51;103271.59;;;2.33;100.00
3206;BME280;1615;53.602;11.418;2023-01-25T03:59:16;103272.22;;;2.43;100.00
3206;BME280;1615;53.602;11.418;2023-01-25T04:01:42;103267.84;;;2.42;100.00
3206;BME280;1615;53.602;11.418;2023-01-25T04:04:07;103263.44;;;2.41;100.00
3206;BME280;1615;53.602;11.418;2023-01-25T04:06:32;103267.53;;;2.37;100.00
3206;BME280;1615;53.602;11.418;2023-01-25T04:08:58;103255.38;;;2.33;100.00
3206;BME280;1615;53.602;11.418;2023-01-25T04:11:23;103260.28;;;2.29;100.00
3206;BME280;1615;53.602;11.418;2023-01-25T04:13:48;103263.78;;;2.38;100.00
3206;BME280;1615;53.602;11.418;2023-01-25T04:16:13;103263.31;;;2.34;100.00
3206;BME280;1615;53.602;11.418;2023-01-25T04:18:39;103119.94;;;1.43;100.00
3206;BME280;1615;53.602;11.418;2023-01-25T04:21:05;103218.44;;;1.87;100.00
3206;BME280;1615;53.602;11.418;2023-01-25T04:23:30;103093.88;;;1.27;100.00
3206;BME280;1615;53.602;11.418;2023-01-25T04:26:01;103259.44;;;2.29;100.00
3206;BME280;1615;53.602;11.418;2023-01-25T04:28:27;103366.38;;;2.25;100.00
3206;BME280;1615;53.602;11.418;2023-01-25T04:30:54;103244.28;;;2.20;100.00
3206;BME280;1615;53.602;11.418;2023-01-25T04:33:19;103255.84;;;2.36;100.00
3206;BME280;1615;53.602;11.418;2023-01-25T04:35:45;103243.81;;;2.39;100.00
3206;BME280;1615;53.602;11.418;2023-01-25T04:38:11;103088.22;;;1.37;100.00
3206;BME280;1615;53.602;11.418;2023-01-25T04:40:37;103231.31;;;2.38;100.00
3206;BME280;1615;53.602;11.418;2023-01-25T04:43:02;103042.84;;;1.32;100.00
3206;BME280;1615;53.602;11.418;2023-01-25T04:45:28;103229.88;;;2.50;100.00
3206;BME280;1615;53.602;11.418;2023-01-25T04:48:00;103221.94;;;2.48;100.00
3206;BME280;1615;53.602;11.418;2023-01-25T04:50:26;103223.63;;;2.49;100.00
3206;BME280;1615;53.602;11.418;2023-01-25T04:52:52;103225.91;;;2.60;100.00
3206;BME280;1615;53.602;11.418;2023-01-25T04:55:18;103218.75;;;2.67;100.00
3206;BME280;1615;53.602;11.418;2023-01-25T04:57:44;103082.19;;;1.88;100.00
3206;BME280;1615;53.602;11.418;2023-01-25T05:00:10;103215.50;;;2.72;100.00
3206;BME280;1615;53.602;11.418;2023-01-25T05:02:36;103205.94;;;2.61;100.00
3206;BME280;1615;53.602;11.418;2023-01-25T05:05:02;103198.38;;;2.57;100.00
3206;BME280;1615;53.602;11.418;2023-01-25T05:07:27;103024.38;;;1.44;100.00
3206;BME280;1615;53.602;11.418;2023-01-25T05:09:52;103206.28;;;2.58;100.00
3206;BME280;1615;53.602;11.418;2023-01-25T05:12:17;103206.41;;;2.65;100.00
3206;BME280;1615;53.602;11.418;2023-01-25T05:14:43;103201.00;;;2.65;100.00
3206;BME280;1615;53.602;11.418;2023-01-25T05:17:08;103200.25;;;2.71;100.00
3206;BME280;1615;53.602;11.418;2023-01-25T05:19:34;103221.09;;;2.70;100.00
3206;BME280;1615;53.602;11.418;2023-01-25T05:22:00;103192.41;;;2.61;100.00
3206;BME280;1615;53.602;11.418;2023-01-25T05:24:28;103189.22;;;2.58;100.00
3206;BME280;1615;53.602;11.418;2023-01-25T05:26:54;103216.63;;;2.55;100.00
3206;BME280;1615;53.602;11.418;2023-01-25T05:29:35;103189.25;;;2.50;100.00
3206;BME280;1615;53.602;11.418;2023-01-25T05:32:03;103188.47;;;2.41;100.00
3206;BME280;1615;53.602;11.418;2023-01-25T05:34:28;103194.38;;;2.45;100.00
3206;BME280;1615;53.602;11.418;2023-01-25T05:36:54;103191.03;;;2.43;100.00
3206;BME280;1615;53.602;11.418;2023-01-25T05:39:19;103183.06;;;2.41;100.00
3206;BME280;1615;53.602;11.418;2023-01-25T05:41:45;103212.31;;;2.46;100.00
3206;BME280;1615;53.602;11.418;2023-01-25T05:44:10;103191.41;;;2.40;100.00
3206;BME280;1615;53.602;11.418;2023-01-25T05:46:36;103189.34;;;2.42;100.00
3206;BME280;1615;53.602;11.418;2023-01-25T05:49:01;103259.34;;;2.45;100.00
3206;BME280;1615;53.602;11.418;2023-01-25T05:51:27;103180.19;;;2.43;100.00
3206;BME280;1615;53.602;11.418;2023-01-25T05:53:55;103180.56;;;2.40;100.00
3206;BME280;1615;53.602;11.418;2023-01-25T05:56:21;103184.97;;;2.41;100.00
3206;BME280;1615;53.602;11.418;2023-01-25T05:58:46;103175.50;;;2.37;100.00
3206;BME280;1615;53.602;11.418;2023-01-25T06:01:12;103032.06;;;1.55;100.00
3206;BME280;1615;53.602;11.418;2023-01-25T06:03:37;103143.06;;;2.29;100.00
3206;BME280;1615;53.602;11.418;2023-01-25T06:06:03;103127.09;;;2.19;100.00
3206;BME280;1615;53.602;11.418;2023-01-25T06:08:29;103086.28;;;2.06;100.00
3206;BME280;1615;53.602;11.418;2023-01-25T06:10:55;103166.34;;;2.38;100.00
3206;BME280;1615;53.602;11.418;2023-01-25T06:13:21;103178.56;;;2.34;100.00
3206;BME280;1615;53.602;11.418;2023-01-25T06:15:54;103174.41;;;2.23;100.00
3206;BME280;1615;53.602;11.418;2023-01-25T06:18:21;103154.28;;;2.26;100.00
3206;BME280;1615;53.602;11.418;2023-01-25T06:20:46;103152.91;;;2.30;100.00
3206;BME280;1615;53.602;11.418;2023-01-25T06:23:12;103147.84;;;2.27;100.00
3206;BME280;1615;53.602;11.418;2023-01-25T06:25:37;103149.50;;;2.28;100.00
3206;BME280;1615;53.602;11.418;2023-01-25T06:28:02;103150.84;;;2.32;100.00
3206;BME280;1615;53.602;11.418;2023-01-25T06:30:28;103139.28;;;2.38;100.00
3206;BME280;1615;53.602;11.418;2023-01-25T06:32:53;103142.47;;;2.41;100.00
3206;BME280;1615;53.602;11.418;2023-01-25T06:35:19;103145.84;;;2.43;100.00
3206;BME280;1615;53.602;11.418;2023-01-25T06:37:44;103139.41;;;2.44;100.00
3206;BME280;1615;53.602;11.418;2023-01-25T06:40:10;103003.34;;;1.54;100.00
3206;BME280;1615;53.602;11.418;2023-01-25T06:42:36;103139.28;;;2.38;100.00
3206;BME280;1615;53.602;11.418;2023-01-25T06:45:01;103120.66;;;2.20;100.00
3206;BME280;1615;53.602;11.418;2023-01-25T06:47:26;103143.38;;;2.34;100.00
3206;BME280;1615;53.602;11.418;2023-01-25T06:49:52;103146.59;;;2.37;100.00
3206;BME280;1615;53.602;11.418;2023-01-25T06:52:17;103142.69;;;2.40;100.00
3206;BME280;1615;53.602;11.418;2023-01-25T06:54:42;103135.94;;;2.36;100.00
3206;BME280;1615;53.602;11.418;2023-01-25T06:57:08;103143.38;;;2.34;100.00
3206;BME280;1615;53.602;11.418;2023-01-25T06:59:36;103154.19;;;2.34;100.00
3206;BME280;1615;53.602;11.418;2023-01-25T07:02:01;103147.50;;;2.30;100.00
3206;BME280;1615;53.602;11.418;2023-01-25T07:04:27;103144.56;;;2.31;100.00
3206;BME280;1615;53.602;11.418;2023-01-25T07:06:52;103136.66;;;2.30;100.00
3206;BME280;1615;53.602;11.418;2023-01-25T07:09:17;103154.31;;;2.40;100.00
3206;BME280;1615;53.602;11.418;2023-01-25T07:11:48;103148.44;;;2.37;100.00
3206;BME280;1615;53.602;11.418;2023-01-25T07:14:13;103144.81;;;2.44;100.00
3206;BME280;1615;53.602;11.418;2023-01-25T07:16:38;103133.63;;;2.47;100.00
3206;BME280;1615;53.602;11.418;2023-01-25T07:19:05;103029.06;;;1.95;100.00
3206;BME280;1615;53.602;11.418;2023-01-25T07:21:31;103131.78;;;2.62;100.00
3206;BME280;1615;53.602;11.418;2023-01-25T07:24:00;103146.47;;;2.68;100.00
3206;BME280;1615;53.602;11.418;2023-01-25T07:26:26;103105.84;;;2.53;100.00
3206;BME280;1615;53.602;11.418;2023-01-25T07:28:53;103133.00;;;2.60;100.00
3206;BME280;1615;53.602;11.418;2023-01-25T07:31:20;103145.31;;;2.48;100.00
3206;BME280;1615;53.602;11.418;2023-01-25T07:33:53;103119.22;;;2.32;100.00
3206;BME280;1615;53.602;11.418;2023-01-25T07:36:19;103134.94;;;2.29;100.00
3206;BME280;1615;53.602;11.418;2023-01-25T07:38:45;103124.50;;;2.26;100.00
3206;BME280;1615;53.602;11.418;2023-01-25T07:41:10;103108.28;;;2.26;100.00
3206;BME280;1615;53.602;11.418;2023-01-25T07:43:37;103111.63;;;2.28;100.00
3206;BME280;1615;53.602;11.418;2023-01-25T07:46:07;103111.41;;;2.37;100.00
3206;BME280;1615;53.602;11.418;2023-01-25T07:48:36;103091.44;;;2.53;100.00
3206;BME280;1615;53.602;11.418;2023-01-25T07:51:04;103118.81;;;2.58;100.00
3206;BME280;1615;53.602;11.418;2023-01-25T07:53:39;103090.34;;;2.62;100.00
3206;BME280;1615;53.602;11.418;2023-01-25T07:56:06;102956.19;;;1.79;100.00
3206;BME280;1615;53.602;11.418;2023-01-25T07:58:33;103016.56;;;2.31;100.00
3206;BME280;1615;53.602;11.418;2023-01-25T08:01:08;103080.00;;;2.80;100.00
3206;BME280;1615;53.602;11.418;2023-01-25T08:03:33;103080.56;;;2.90;100.00
3206;BME280;1615;53.602;11.418;2023-01-25T08:05:59;103079.06;;;2.87;100.00
3206;BME280;1615;53.602;11.418;2023-01-25T08:08:26;103058.97;;;2.82;100.00
3206;BME280;1615;53.602;11.418;2023-01-25T08:10:55;103056.75;;;2.85;100.00
3206;BME280;1615;53.602;11.418;2023-01-25T08:13:20;103068.06;;;2.89;100.00
3206;BME280;1615;53.602;11.418;2023-01-25T08:15:52;103070.09;;;2.87;100.00
3206;BME280;1615;53.602;11.418;2023-01-25T08:18:17;103056.75;;;2.85;100.00
3206;BME280;1615;53.602;11.418;2023-01-25T08:20:43;103064.31;;;2.90;100.00
3206;BME280;1615;53.602;11.418;2023-01-25T08:23:08;103058.44;;;3.01;100.00
3206;BME280;1615;53.602;11.418;2023-01-25T08:25:33;103051.69;;;2.97;100.00
3206;BME280;1615;53.602;11.418;2023-01-25T08:27:58;103051.69;;;2.97;100.00
3206;BME280;1615;53.602;11.418;2023-01-25T08:30:24;103050.19;;;2.94;100.00
3206;BME280;1615;53.602;11.418;2023-01-25T08:32:49;103053.09;;;2.93;100.00
3206;BME280;1615;53.602;11.418;2023-01-25T08:35:14;103048.88;;;2.90;100.00
3206;BME280;1615;53.602;11.418;2023-01-25T08:37:40;103053.47;;;2.90;100.00
3206;BME280;1615;53.602;11.418;2023-01-25T08:40:05;103049.09;;;2.89;100.00
3206;BME280;1615;53.602;11.418;2023-01-25T08:42:31;103053.84;;;2.87;100.00
3206;BME280;1615;53.602;11.418;2023-01-25T08:44:56;103038.25;;;2.89;100.00
3206;BME280;1615;53.602;11.418;2023-01-25T08:47:22;103034.69;;;2.88;100.00
3206;BME280;1615;53.602;11.418;2023-01-25T08:49:47;103035.00;;;2.79;100.00
3206;BME280;1615;53.602;11.418;2023-01-25T08:52:12;103039.47;;;2.72;100.00
3206;BME280;1615;53.602;11.418;2023-01-25T08:54:39;103035.63;;;2.66;100.00
3206;BME280;1615;53.602;11.418;2023-01-25T08:57:08;103033.97;;;2.65;100.00
3206;BME280;1615;53.602;11.418;2023-01-25T08:59:33;103029.09;;;2.61;100.00
3206;BME280;1615;53.602;11.418;2023-01-25T09:01:58;103020.13;;;2.75;100.00
3206;BME280;1615;53.602;11.418;2023-01-25T09:04:24;102994.66;;;2.69;100.00
3206;BME280;1615;53.602;11.418;2023-01-25T09:06:52;102977.28;;;2.64;100.00
3206;BME280;1615;53.602;11.418;2023-01-25T09:09:18;103031.06;;;2.96;100.00
3206;BME280;1615;53.602;11.418;2023-01-25T09:11:43;103000.06;;;2.84;100.00
3206;BME280;1615;53.602;11.418;2023-01-25T09:14:08;103013.13;;;2.95;100.00
3206;BME280;1615;53.602;11.418;2023-01-25T09:16:34;103004.44;;;2.85;100.00
3206;BME280;1615;53.602;11.418;2023-01-25T09:19:01;103035.28;;;2.84;100.00
3206;BME280;1615;53.602;11.418;2023-01-25T09:21:27;103024.72;;;2.89;100.00
3206;BME280;1615;53.602;11.418;2023-01-25T09:23:53;103001.84;;;2.91;100.00
3206;BME280;1615;53.602;11.418;2023-01-25T09:26:19;102933.03;;;2.57;100.00
3206;BME280;1615;53.602;11.418;2023-01-25T09:28:49;102989.50;;;2.89;100.00
3206;BME280;1615;53.602;11.418;2023-01-25T09:31:15;102980.97;;;2.92;100.00
3206;BME280;1615;53.602;11.418;2023-01-25T09:33:41;102972.22;;;2.90;100.00
3206;BME280;1615;53.602;11.418;2023-01-25T09:36:07;102977.16;;;3.01;100.00
3206;BME280;1615;53.602;11.418;2023-01-25T09:38:33;102974.78;;;3.12;100.00
3206;BME280;1615;53.602;11.418;2023-01-25T09:46:38;102954.59;;;3.15;100.00
3206;BME280;1615;53.602;11.418;2023-01-25T09:52:25;102965.44;;;3.15;100.00
3206;BME280;1615;53.602;11.418;2023-01-25T09:54:58;102952.53;;;3.17;100.00
3206;BME280;1615;53.602;11.418;2023-01-25T09:57:33;102962.06;;;3.13;100.00
3206;BME280;1615;53.602;11.418;2023-01-25T10:00:05;102958.72;;;3.11;100.00
3206;BME280;1615;53.602;11.418;2023-01-25T10:03:02;102960.75;;;3.09;100.00
3206;BME280;1615;53.602;11.418;2023-01-25T10:05:44;102953.41;;;3.03;100.00
3206;BME280;1615;53.602;11.418;2023-01-25T10:08:22;102955.56;;;2.93;100.00
3206;BME280;1615;53.602;11.418;2023-01-25T10:10:57;102954.44;;;3.02;100.00
3206;BME280;1615;53.602;11.418;2023-01-25T10:13:24;102954.06;;;3.05;100.00
3206;BME280;1615;53.602;11.418;2023-01-25T10:16:03;102949.94;;;3.09;100.00
3206;BME280;1615;53.602;11.418;2023-01-25T10:18:42;102941.06;;;3.15;100.00
3206;BME280;1615;53.602;11.418;2023-01-25T10:26:49;102935.50;;;3.23;100.00
3206;BME280;1615;53.602;11.418;2023-01-25T10:29:28;102895.38;;;3.12;100.00
3206;BME280;1615;53.602;11.418;2023-01-25T10:32:18;102947.41;;;3.43;100.00
3206;BME280;1615;53.602;11.418;2023-01-25T10:34:46;102925.44;;;3.38;100.00
3206;BME280;1615;53.602;11.418;2023-01-25T10:37:17;102921.84;;;3.31;100.00
3206;BME280;1615;53.602;11.418;2023-01-25T10:40:03;102920.53;;;3.27;100.00
3206;BME280;1615;53.602;11.418;2023-01-25T10:42:36;102918.34;;;3.16;100.00
3206;BME280;1615;53.602;11.418;2023-01-25T10:45:14;102908.13;;;3.18;100.00
3206;BME280;1615;53.602;11.418;2023-01-25T10:47:43;102904.19;;;3.20;100.00
3206;BME280;1615;53.602;11.418;2023-01-25T10:53:20;102886.53;;;3.24;100.00
3206;BME280;1615;53.602;11.418;2023-01-25T10:58:42;102876.28;;;3.20;100.00
3206;BME280;1615;53.602;11.418;2023-01-25T11:01:24;102868.34;;;3.18;100.00
3206;BME280;1615;53.602;11.418;2023-01-25T11:03:51;102865.81;;;3.17;100.00
3206;BME280;1615;53.602;11.418;2023-01-25T11:06:37;102899.75;;;3.13;100.00
3206;BME280;1615;53.602;11.418;2023-01-25T11:14:22;102848.59;;;3.24;100.00
3206;BME280;1615;53.602;11.418;2023-01-25T11:16:48;102849.66;;;3.30;100.00
3206;BME280;1615;53.602;11.418;2023-01-25T11:19:40;102848.75;;;3.44;100.00
3206;BME280;1615;53.602;11.418;2023-01-25T11:22:23;102838.50;;;3.39;100.00
3206;BME280;1615;53.602;11.418;2023-01-25T11:24:49;102831.47;;;3.45;100.00
3206;BME280;1615;53.602;11.418;2023-01-25T11:27:22;102828.56;;;3.46;100.00
3206;BME280;1615;53.602;11.418;2023-01-25T11:30:15;102826.38;;;3.35;100.00
3206;BME280;1615;53.602;11.418;2023-01-25T11:32:43;102814.19;;;3.25;100.00
3206;BME280;1615;53.602;11.418;2023-01-25T11:35:20;102812.50;;;3.24;100.00
3206;BME280;1615;53.602;11.418;2023-01-25T11:40:40;102801.28;;;3.27;100.00
3206;BME280;1615;53.602;11.418;2023-01-25T11:46:01;102785.31;;;3.38;100.00
3206;BME280;1615;53.602;11.418;2023-01-25T11:56:59;102724.69;;;3.46;100.00
3206;BME280;1615;53.602;11.418;2023-01-25T11:59:48;102753.81;;;3.65;100.00
3206;BME280;1615;53.602;11.418;2023-01-25T12:02:37;102756.91;;;3.62;100.00
3206;BME280;1615;53.602;11.418;2023-01-25T12:07:57;102745.66;;;3.65;100.00
3206;BME280;1615;53.602;11.418;2023-01-25T12:18:44;102724.50;;;3.47;100.00
3206;BME280;1615;53.602;11.418;2023-01-25T12:21:20;102721.34;;;3.44;100.00
3206;BME280;1615;53.602;11.418;2023-01-25T12:24:15;102709.63;;;3.37;100.00
3206;BME280;1615;53.602;11.418;2023-01-25T12:29:52;102698.97;;;3.35;100.00
3206;BME280;1615;53.602;11.418;2023-01-25T12:32:25;102697.13;;;3.42;100.00
3206;BME280;1615;53.602;11.418;2023-01-25T12:37:52;102684.56;;;3.35;100.00
3206;BME280;1615;53.602;11.418;2023-01-25T12:40:50;102670.84;;;3.36;100.00
3206;BME280;1615;53.602;11.418;2023-01-25T12:43:30;102614.41;;;3.12;100.00
3206;BME280;1615;53.602;11.418;2023-01-25T12:46:00;102668.88;;;3.58;100.00
3206;BME280;1615;53.602;11.418;2023-01-25T12:48:31;102662.19;;;3.54;100.00
3206;BME280;1615;53.602;11.418;2023-01-25T12:51:01;102650.84;;;3.44;100.00
3206;BME280;1615;53.602;11.418;2023-01-25T12:53:36;102642.16;;;3.55;100.00
3206;BME280;1615;53.602;11.418;2023-01-25T12:56:05;102672.59;;;3.57;100.00
3206;BME280;1615;53.602;11.418;2023-01-25T12:58:45;102642.16;;;3.55;100.00
3206;BME280;1615;53.602;11.418;2023-01-25T13:07:02;102635.69;;;3.56;100.00
3206;BME280;1615;53.602;11.418;2023-01-25T13:12:15;102620.47;;;3.55;100.00
3206;BME280;1615;53.602;11.418;2023-01-25T13:14:41;102612.91;;;3.44;100.00
3206;BME280;1615;53.602;11.418;2023-01-25T13:17:44;102620.41;;;3.48;100.00
3206;BME280;1615;53.602;11.418;2023-01-25T13:23:40;102610.88;;;3.59;100.00
3206;BME280;1615;53.602;11.418;2023-01-25T13:44:44;102591.75;;;3.73;100.00
3206;BME280;1615;53.602;11.418;2023-01-25T13:47:15;102585.28;;;3.68;100.00
3206;BME280;1615;53.602;11.418;2023-01-25T13:50:07;102586.28;;;3.60;100.00
3206;BME280;1615;53.602;11.418;2023-01-25T13:52:32;102593.19;;;3.63;100.00
3206;BME280;1615;53.602;11.418;2023-01-25T13:54:59;102591.25;;;3.57;100.00
3206;BME280;1615;53.602;11.418;2023-01-25T13:57:27;102606.28;;;3.53;100.00
3206;BME280;1615;53.602;11.418;2023-01-25T14:00:03;102594.41;;;3.54;100.00
3206;BME280;1615;53.602;11.418;2023-01-25T14:02:29;102594.16;;;3.49;100.00
3206;BME280;1615;53.602;11.418;2023-01-25T14:04:56;102569.72;;;3.42;100.00
3206;BME280;1615;53.602;11.418;2023-01-25T14:07:28;102585.63;;;3.52;100.00
3206;BME280;1615;53.602;11.418;2023-01-25T14:09:55;102577.03;;;3.48;100.00
3206;BME280;1615;53.602;11.418;2023-01-25T14:12:36;102575.00;;;3.50;100.00
3206;BME280;1615;53.602;11.418;2023-01-25T14:17:41;102570.16;;;3.46;100.00
3206;BME280;1615;53.602;11.418;2023-01-25T14:20:20;102574.94;;;3.44;100.00
3206;BME280;1615;53.602;11.418;2023-01-25T14:22:48;102570.34;;;3.38;100.00
3206;BME280;1615;53.602;11.418;2023-01-25T14:25:18;102569.25;;;3.32;100.00
3206;BME280;1615;53.602;11.418;2023-01-25T14:27:53;102561.16;;;3.39;100.00
3206;BME280;1615;53.602;11.418;2023-01-25T14:32:50;102553.22;;;3.31;100.00
3206;BME280;1615;53.602;11.418;2023-01-25T14:35:40;102554.47;;;3.35;100.00
3206;BME280;1615;53.602;11.418;2023-01-25T14:38:38;102557.00;;;3.36;100.00
3206;BME280;1615;53.602;11.418;2023-01-25T14:43:30;102527.72;;;3.19;100.00
3206;BME280;1615;53.602;11.418;2023-01-25T14:45:56;102520.06;;;3.29;100.00
3206;BME280;1615;53.602;11.418;2023-01-25T14:48:51;102537.03;;;3.57;100.00
3206;BME280;1615;53.602;11.418;2023-01-25T14:51:29;102536.19;;;3.50;100.00
3206;BME280;1615;53.602;11.418;2023-01-25T14:54:00;102541.56;;;3.37;100.00
3206;BME280;1615;53.602;11.418;2023-01-25T14:56:40;102532.13;;;3.26;100.00
3206;BME280;1615;53.602;11.418;2023-01-25T14:59:21;102531.09;;;3.21;100.00
3206;BME280;1615;53.602;11.418;2023-01-25T15:01:49;102359.09;;;2.10;100.00
3206;BME280;1615;53.602;11.418;2023-01-25T15:04:16;102525.66;;;3.21;100.00
3206;BME280;1615;53.602;11.418;2023-01-25T15:06:49;102530.66;;;3.17;100.00